Time;durP1;ratioP1;P1;durP2;ratioP2;P2;SDS_P1;SDS_P2;PMS_P1;PMS_P2;Temp;Humidity;BMP_temperature;BMP_pressure;BME280_temperature;BME280_humidity;BME280_pressure;Samples;Min_cycle;Max_cycle;Signal;HPM_P1;HPM_P2
2022/03/04 00:02:03;;;;;;;27.48;14.35;;;2.00;99.90;;;;;;4953376;28;20045;-52
2022/03/04 00:04:30;;;;;;;30.42;15.98;;;2.00;99.90;;;;;;4949046;28;20046;-55
2022/03/04 00:06:55;;;;;;;27.88;16.23;;;1.90;99.90;;;;;;4946654;28;20046;-56
2022/03/04 00:09:22;;;;;;;28.35;15.45;;;1.90;99.90;;;;;;4948642;28;20047;-52
2022/03/04 00:11:48;;;;;;;26.65;15.15;;;2.00;99.90;;;;;;4945846;28;20043;-52
2022/03/04 00:14:14;;;;;;;23.63;13.57;;;1.90;99.90;;;;;;4952232;28;20043;-53
2022/03/04 00:16:40;;;;;;;24.67;13.88;;;1.90;99.90;;;;;;4951217;28;20808;-55
2022/03/04 00:19:07;;;;;;;26.75;14.25;;;1.90;99.90;;;;;;4946941;28;20178;-55
2022/03/04 00:21:41;;;;;;;25.08;13.70;;;1.90;99.90;;;;;;4950970;28;20050;-54
2022/03/04 00:24:08;;;;;;;23.75;13.55;;;1.80;99.90;;;;;;4946991;28;20690;-53
2022/03/04 00:26:35;;;;;;;23.25;12.20;;;1.80;99.90;;;;;;4955198;28;20517;-52
2022/03/04 00:29:00;;;;;;;21.75;12.85;;;1.80;99.90;;;;;;4966438;28;20038;-54
2022/03/04 00:31:26;;;;;;;26.77;13.88;;;1.80;99.90;;;;;;4953688;28;20034;-51
2022/03/04 00:33:52;;;;;;;23.77;13.00;;;1.80;99.90;;;;;;4951192;28;20058;-55
2022/03/04 00:36:22;;;;;;;22.20;13.18;;;1.80;99.90;;;;;;4950442;28;20445;-55
2022/03/04 00:38:53;;;;;;;22.98;12.65;;;1.80;99.90;;;;;;4950011;28;20050;-55
2022/03/04 00:41:20;;;;;;;26.48;13.63;;;1.80;99.90;;;;;;4954943;28;20105;-52
2022/03/04 00:43:46;;;;;;;26.50;13.52;;;1.80;99.90;;;;;;4959083;28;20074;-56
2022/03/04 00:46:13;;;;;;;23.27;12.88;;;1.80;99.90;;;;;;4971192;28;20046;-55
2022/03/04 00:48:40;;;;;;;22.67;12.75;;;1.70;99.90;;;;;;4970992;28;20125;-53
2022/03/04 00:51:06;;;;;;;23.27;13.98;;;1.70;99.90;;;;;;4984030;28;20077;-51
2022/03/04 00:53:31;;;;;;;23.40;13.40;;;1.70;99.90;;;;;;4966428;28;20046;-51
2022/03/04 00:55:58;;;;;;;22.60;12.43;;;1.60;99.90;;;;;;4954421;28;20089;-56
2022/03/04 00:58:24;;;;;;;25.05;13.18;;;1.60;99.90;;;;;;4975782;28;20129;-55
2022/03/04 01:00:50;;;;;;;23.50;12.93;;;1.60;99.90;;;;;;4956566;28;20153;-53
2022/03/04 01:03:16;;;;;;;26.17;13.18;;;1.50;99.90;;;;;;4945705;28;22145;-51
2022/03/04 01:05:42;;;;;;;21.20;11.68;;;1.50;99.90;;;;;;4945696;28;20054;-54
2022/03/04 01:08:08;;;;;;;22.58;12.52;;;1.50;99.90;;;;;;4949197;28;20462;-55
2022/03/04 01:10:34;;;;;;;24.42;12.27;;;1.50;99.90;;;;;;4938845;28;20051;-55
2022/03/04 01:13:00;;;;;;;27.88;13.57;;;1.50;99.90;;;;;;4948492;28;20759;-55
2022/03/04 01:15:26;;;;;;;24.50;12.52;;;1.50;99.90;;;;;;4969835;28;20046;-56
2022/03/04 01:17:52;;;;;;;24.85;13.93;;;1.50;99.90;;;;;;4952520;28;20211;-54
2022/03/04 01:20:17;;;;;;;25.65;12.77;;;1.50;99.90;;;;;;4952342;28;20370;-54
2022/03/04 01:22:43;;;;;;;19.60;11.75;;;1.50;99.90;;;;;;4948807;28;20118;-51
2022/03/04 01:25:10;;;;;;;21.55;12.60;;;1.50;99.90;;;;;;4929862;28;20054;-53
2022/03/04 01:27:35;;;;;;;27.30;12.95;;;1.40;99.90;;;;;;4949824;28;20403;-56
2022/03/04 01:30:03;;;;;;;25.70;12.25;;;1.40;99.90;;;;;;4957347;28;20049;-56
2022/03/04 01:32:29;;;;;;;21.13;11.23;;;1.40;99.90;;;;;;4962805;28;20553;-52
2022/03/04 01:34:55;;;;;;;22.85;11.63;;;1.40;99.90;;;;;;4947996;28;20123;-55
2022/03/04 01:37:21;;;;;;;23.08;12.10;;;1.40;99.90;;;;;;4955424;28;20090;-57
2022/03/04 01:39:47;;;;;;;19.83;10.60;;;1.40;99.90;;;;;;4953042;28;20034;-55
2022/03/04 01:42:12;;;;;;;23.65;13.82;;;1.40;99.90;;;;;;4951147;28;20117;-54
2022/03/04 01:44:39;;;;;;;27.65;14.02;;;1.30;99.90;;;;;;4954695;28;20037;-53
2022/03/04 01:47:06;;;;;;;25.17;12.93;;;1.30;99.90;;;;;;4955389;28;20319;-51
2022/03/04 01:49:32;;;;;;;23.25;13.73;;;1.30;99.90;;;;;;4956367;28;20038;-52
2022/03/04 01:51:57;;;;;;;21.60;12.75;;;1.30;99.90;;;;;;4953543;28;20058;-53
2022/03/04 01:54:24;;;;;;;20.77;10.77;;;1.30;99.90;;;;;;4952327;28;20110;-51
2022/03/04 01:56:49;;;;;;;23.13;12.68;;;1.20;99.90;;;;;;4953356;28;20558;-53
2022/03/04 01:59:15;;;;;;;23.17;13.00;;;1.20;99.90;;;;;;4953441;28;20049;-55
2022/03/04 02:01:41;;;;;;;26.65;12.88;;;1.20;99.90;;;;;;4964542;28;20097;-55
2022/03/04 02:04:07;;;;;;;22.20;12.55;;;1.20;99.90;;;;;;4949664;28;20046;-55
2022/03/04 02:06:33;;;;;;;27.48;13.43;;;1.10;99.90;;;;;;4951599;28;20052;-54
2022/03/04 02:08:59;;;;;;;22.95;13.70;;;1.10;99.90;;;;;;4945446;28;20482;-54
2022/03/04 02:11:24;;;;;;;24.60;12.55;;;1.10;99.90;;;;;;4954886;28;20125;-52
2022/03/04 02:13:50;;;;;;;25.17;12.82;;;1.10;99.90;;;;;;4948442;28;20050;-54
2022/03/04 02:16:54;;;;;;;24.33;13.60;;;1.10;99.90;;;;;;4949001;28;20043;-55
2022/03/04 02:19:21;;;;;;;27.45;12.63;;;1.10;99.90;;;;;;4944058;28;20714;-55
2022/03/04 02:21:58;;;;;;;25.45;13.15;;;1.10;99.90;;;;;;4934359;28;20046;-54
2022/03/04 02:24:27;;;;;;;22.98;12.55;;;1.00;99.90;;;;;;4945889;28;20058;-56
2022/03/04 02:26:54;;;;;;;24.30;12.75;;;1.00;99.90;;;;;;4926613;28;20059;-52
2022/03/04 02:29:20;;;;;;;26.42;14.23;;;1.00;99.90;;;;;;4944368;28;20046;-53
2022/03/04 02:31:47;;;;;;;23.98;13.15;;;1.10;99.90;;;;;;4970808;28;20068;-53
2022/03/04 02:34:13;;;;;;;25.65;13.70;;;1.10;99.90;;;;;;4972131;28;20413;-53
2022/03/04 02:36:39;;;;;;;25.27;14.18;;;1.00;99.90;;;;;;4976256;28;20054;-54
2022/03/04 02:39:06;;;;;;;24.83;12.98;;;1.10;99.90;;;;;;4973895;28;20052;-55
2022/03/04 02:41:35;;;;;;;25.02;12.85;;;1.10;99.90;;;;;;4974525;28;20082;-55
2022/03/04 02:44:07;;;;;;;26.88;14.02;;;1.00;99.90;;;;;;4963377;28;20038;-56
2022/03/04 02:46:33;;;;;;;27.88;14.27;;;1.00;99.90;;;;;;4953569;28;20383;-53
2022/03/04 02:48:59;;;;;;;21.65;11.48;;;0.90;99.90;;;;;;4950993;28;20539;-51
2022/03/04 02:51:25;;;;;;;25.98;13.77;;;1.00;99.90;;;;;;4955625;28;20050;-55
2022/03/04 02:53:51;;;;;;;29.42;14.65;;;1.00;99.90;;;;;;4969172;28;20747;-52
2022/03/04 02:56:17;;;;;;;28.05;14.60;;;0.90;99.90;;;;;;4947666;28;20046;-52
2022/03/04 02:58:43;;;;;;;31.75;15.15;;;0.90;99.90;;;;;;4956616;28;20053;-55
2022/03/04 03:01:09;;;;;;;32.60;15.32;;;0.80;99.90;;;;;;4946001;28;20247;-54
2022/03/04 03:03:35;;;;;;;28.42;15.25;;;0.80;99.90;;;;;;4948667;28;20095;-55
2022/03/04 03:06:00;;;;;;;31.90;17.00;;;0.80;99.90;;;;;;4954169;28;21142;-55
2022/03/04 03:08:28;;;;;;;32.78;15.50;;;0.80;99.90;;;;;;4981890;23;20050;-56
2022/03/04 03:10:54;;;;;;;28.80;14.48;;;0.70;99.90;;;;;;4985534;28;20077;-52
2022/03/04 03:13:20;;;;;;;31.13;16.15;;;0.70;99.90;;;;;;4984292;28;20276;-56
2022/03/04 03:15:46;;;;;;;28.05;14.60;;;0.70;99.90;;;;;;4971797;28;20041;-55
2022/03/04 03:18:12;;;;;;;27.05;15.40;;;0.70;99.90;;;;;;4950008;28;20318;-55
2022/03/04 03:20:38;;;;;;;27.83;13.95;;;0.70;99.90;;;;;;4960862;28;20042;-56
2022/03/04 03:23:04;;;;;;;30.85;13.68;;;0.70;99.90;;;;;;4935162;28;20043;-53
2022/03/04 03:25:29;;;;;;;27.45;14.07;;;0.70;99.90;;;;;;4947259;28;20297;-56
2022/03/04 03:27:55;;;;;;;28.02;14.90;;;0.70;99.90;;;;;;4952711;28;20746;-52
2022/03/04 03:30:21;;;;;;;29.13;15.43;;;0.70;99.90;;;;;;4955158;28;20056;-54
2022/03/04 03:32:47;;;;;;;27.73;15.60;;;0.70;99.90;;;;;;4950334;28;20089;-52
2022/03/04 03:35:13;;;;;;;30.33;15.18;;;0.60;99.90;;;;;;4950316;28;20512;-56
2022/03/04 03:37:39;;;;;;;29.13;16.05;;;0.60;99.90;;;;;;4930986;28;20043;-55
2022/03/04 03:40:09;;;;;;;31.98;16.20;;;0.60;99.90;;;;;;4954203;28;21144;-56
2022/03/04 03:42:35;;;;;;;34.40;19.48;;;0.60;99.90;;;;;;4947542;28;20237;-55
2022/03/04 03:45:01;;;;;;;38.42;18.67;;;0.60;99.90;;;;;;4968264;28;20506;-54
2022/03/04 03:47:26;;;;;;;46.10;21.90;;;0.60;99.90;;;;;;4949526;28;20097;-56
2022/03/04 03:49:52;;;;;;;33.35;16.23;;;0.50;99.90;;;;;;4955877;28;20070;-52
2022/03/04 03:52:18;;;;;;;37.90;20.13;;;0.50;99.90;;;;;;4955068;28;21378;-56
2022/03/04 03:54:43;;;;;;;35.55;18.70;;;0.40;99.90;;;;;;4945635;28;20125;-53
2022/03/04 03:57:10;;;;;;;34.05;18.25;;;0.40;99.90;;;;;;4951309;28;20438;-58
2022/03/04 03:59:37;;;;;;;33.85;17.30;;;0.40;99.90;;;;;;4952089;28;20732;-57
2022/03/04 04:02:03;;;;;;;35.47;16.40;;;0.40;99.90;;;;;;4940621;28;20055;-53
2022/03/04 04:04:34;;;;;;;33.47;16.33;;;0.40;99.90;;;;;;4941767;28;20678;-51
2022/03/04 04:07:10;;;;;;;33.67;16.80;;;0.30;99.90;;;;;;4959245;28;20328;-56
2022/03/04 04:09:36;;;;;;;34.08;18.10;;;0.30;99.90;;;;;;4940887;28;20516;-55
2022/03/04 04:12:02;;;;;;;31.13;15.70;;;0.30;99.90;;;;;;4956334;28;20055;-54
2022/03/04 04:14:28;;;;;;;35.65;18.17;;;0.30;99.90;;;;;;4938511;28;20041;-55
2022/03/04 04:16:56;;;;;;;34.72;18.50;;;0.30;99.90;;;;;;4954871;28;20046;-53
2022/03/04 04:19:22;;;;;;;35.40;18.20;;;0.20;99.90;;;;;;4970109;28;20089;-54
2022/03/04 04:21:49;;;;;;;38.30;19.45;;;0.20;99.90;;;;;;4963983;28;20430;-54
2022/03/04 04:24:16;;;;;;;37.80;18.73;;;0.20;99.90;;;;;;4949461;28;20505;-55
2022/03/04 04:26:42;;;;;;;35.10;17.40;;;0.20;99.90;;;;;;4966043;28;20124;-56
2022/03/04 04:29:08;;;;;;;42.40;19.00;;;0.20;99.90;;;;;;4957951;28;20437;-52
2022/03/04 04:31:35;;;;;;;39.08;19.00;;;0.20;99.90;;;;;;4953498;28;20038;-55
2022/03/04 04:34:01;;;;;;;35.42;18.95;;;0.20;99.90;;;;;;4954323;28;20456;-56
2022/03/04 04:36:28;;;;;;;42.40;20.08;;;0.10;99.90;;;;;;4958357;28;20053;-53
2022/03/04 04:38:54;;;;;;;38.58;18.63;;;0.10;99.90;;;;;;4953916;28;20054;-51
2022/03/04 04:41:20;;;;;;;44.47;20.38;;;0.10;99.90;;;;;;4962000;28;20077;-55
2022/03/04 04:43:46;;;;;;;44.47;22.08;;;0.10;99.90;;;;;;4934096;28;20096;-56
2022/03/04 04:46:13;;;;;;;33.92;17.35;;;0.10;99.90;;;;;;4954935;28;20307;-55
2022/03/04 04:48:39;;;;;;;41.45;19.58;;;0.00;99.90;;;;;;4957810;28;20125;-54
2022/03/04 04:51:05;;;;;;;40.38;20.38;;;0.00;99.90;;;;;;4954113;28;20057;-55
2022/03/04 04:53:32;;;;;;;40.15;20.02;;;0.00;99.90;;;;;;4946251;28;20368;-55
2022/03/04 04:55:58;;;;;;;43.97;21.77;;;0.00;99.90;;;;;;4954499;28;20125;-56
2022/03/04 04:58:24;;;;;;;43.20;19.38;;;0.00;99.90;;;;;;4953334;28;20130;-54
2022/03/04 05:00:53;;;;;;;32.45;17.63;;;0.10;99.90;;;;;;4951212;28;20741;-55
2022/03/04 05:03:21;;;;;;;44.17;20.50;;;0.00;99.90;;;;;;4940497;28;20043;-53
2022/03/04 05:05:47;;;;;;;38.75;18.80;;;0.00;99.90;;;;;;4936863;28;20281;-53
2022/03/04 05:08:12;;;;;;;43.70;19.15;;;0.00;99.90;;;;;;4955505;28;20051;-52
2022/03/04 05:10:38;;;;;;;40.35;19.33;;;-0.10;99.90;;;;;;4956171;28;20061;-52
2022/03/04 05:13:04;;;;;;;42.70;20.63;;;-0.10;99.90;;;;;;4954120;28;20125;-56
2022/03/04 05:15:30;;;;;;;40.15;19.92;;;-0.10;99.90;;;;;;4938272;28;21435;-56
2022/03/04 05:17:56;;;;;;;37.95;19.58;;;-0.10;99.90;;;;;;4954127;28;20253;-55
2022/03/04 05:20:22;;;;;;;38.75;19.58;;;-0.20;99.90;;;;;;4952326;28;20085;-54
2022/03/04 05:22:48;;;;;;;41.03;19.38;;;-0.20;99.90;;;;;;4949526;28;20042;-53
2022/03/04 05:25:13;;;;;;;40.53;19.08;;;-0.20;99.90;;;;;;4955506;28;20518;-55
2022/03/04 05:27:40;;;;;;;36.47;19.40;;;-0.20;99.90;;;;;;4933384;28;20873;-52
2022/03/04 05:30:07;;;;;;;39.03;18.60;;;-0.20;99.90;;;;;;4973589;28;20835;-56
2022/03/04 05:32:33;;;;;;;46.08;22.20;;;-0.30;99.90;;;;;;4954865;28;20043;-55
2022/03/04 05:34:59;;;;;;;41.95;22.33;;;-0.30;99.90;;;;;;4935279;28;20039;-54
2022/03/04 05:37:24;;;;;;;41.88;19.08;;;-0.30;99.90;;;;;;4951916;28;20128;-54
2022/03/04 05:39:52;;;;;;;41.92;21.13;;;-0.30;99.90;;;;;;4959009;28;20064;-56
2022/03/04 05:42:18;;;;;;;49.75;22.23;;;-0.30;99.90;;;;;;4953903;28;20553;-55
2022/03/04 05:44:44;;;;;;;44.22;21.92;;;-0.30;99.90;;;;;;4951622;28;20375;-54
2022/03/04 05:47:10;;;;;;;43.75;20.80;;;-0.40;99.90;;;;;;4933980;28;20089;-57
2022/03/04 05:49:36;;;;;;;34.53;17.77;;;-0.40;99.90;;;;;;4951063;28;20051;-57
2022/03/04 05:52:03;;;;;;;43.47;20.60;;;-0.40;99.90;;;;;;4933761;28;20184;-54
2022/03/04 05:54:29;;;;;;;31.42;16.98;;;-0.50;99.90;;;;;;4963949;28;20168;-53
2022/03/04 05:56:55;;;;;;;42.33;19.80;;;-0.50;99.90;;;;;;4944009;28;22278;-54
2022/03/04 05:59:21;;;;;;;40.50;19.60;;;-0.50;99.90;;;;;;4967811;28;20059;-56
2022/03/04 06:01:47;;;;;;;37.60;18.47;;;-0.60;99.90;;;;;;4967014;28;20125;-56
2022/03/04 06:04:13;;;;;;;40.17;19.30;;;-0.60;99.90;;;;;;4933414;28;20060;-56
2022/03/04 06:06:39;;;;;;;33.87;17.50;;;-0.60;99.90;;;;;;4933345;28;20046;-56
2022/03/04 06:09:04;;;;;;;39.97;20.43;;;-0.70;99.90;;;;;;4955011;28;20160;-56
2022/03/04 06:11:30;;;;;;;48.87;21.67;;;-0.70;99.90;;;;;;4949887;28;20802;-55
2022/03/04 06:13:56;;;;;;;45.10;20.57;;;-0.90;99.90;;;;;;4958364;28;20157;-55
2022/03/04 06:16:22;;;;;;;41.27;19.87;;;-0.90;99.90;;;;;;4932989;28;20054;-54
2022/03/04 06:18:48;;;;;;;48.47;20.53;;;-0.90;99.90;;;;;;4954132;28;20058;-55
2022/03/04 06:21:13;;;;;;;45.87;19.97;;;-0.90;99.90;;;;;;4950920;28;20544;-52
2022/03/04 06:23:39;;;;;;;51.27;21.27;;;-0.90;99.90;;;;;;4933276;28;20056;-54
2022/03/04 06:26:05;;;;;;;57.87;22.47;;;-0.90;99.90;;;;;;4962893;28;20045;-53
2022/03/04 06:28:31;;;;;;;67.20;25.07;;;-0.90;99.90;;;;;;4938571;28;20761;-55
2022/03/04 06:30:57;;;;;;;53.90;22.43;;;-0.90;99.90;;;;;;4958558;28;20058;-54
2022/03/04 06:33:36;;;;;;;68.47;24.07;;;-0.90;99.90;;;;;;4937197;28;20502;-55
2022/03/04 06:36:11;;;;;;;51.53;23.13;;;-0.90;99.90;;;;;;4947552;28;20149;-54
2022/03/04 06:38:39;;;;;;;56.83;24.03;;;-0.80;99.90;;;;;;4949398;28;20054;-56
2022/03/04 06:41:05;;;;;;;64.70;24.73;;;-0.90;99.90;;;;;;4959405;28;20054;-55
2022/03/04 06:43:32;;;;;;;62.37;24.30;;;-0.90;99.90;;;;;;4952001;28;20500;-55
2022/03/04 06:45:58;;;;;;;62.50;25.03;;;-0.80;99.90;;;;;;4954207;28;20049;-55
2022/03/04 06:48:25;;;;;;;60.40;25.97;;;-0.80;99.90;;;;;;4969273;28;20041;-55
2022/03/04 06:50:51;;;;;;;58.47;25.17;;;-0.80;99.90;;;;;;4955724;28;22795;-55
2022/03/04 06:53:17;;;;;;;56.67;23.90;;;-0.70;99.90;;;;;;4957154;28;20133;-56
2022/03/04 06:55:44;;;;;;;53.67;23.10;;;-0.70;99.90;;;;;;4936980;28;20134;-55
2022/03/04 06:58:10;;;;;;;60.17;24.33;;;-0.70;99.90;;;;;;4956593;28;20054;-55
2022/03/04 07:00:37;;;;;;;57.83;24.60;;;-0.70;99.90;;;;;;4939561;28;20054;-55
2022/03/04 07:03:03;;;;;;;65.17;27.33;;;-0.60;99.90;;;;;;4952737;28;20054;-53
2022/03/04 07:05:29;;;;;;;59.37;25.67;;;-0.60;99.90;;;;;;4936883;28;20054;-55
2022/03/04 07:07:54;;;;;;;65.90;24.37;;;-0.60;99.90;;;;;;4950068;28;20101;-55
2022/03/04 07:10:21;;;;;;;60.60;25.87;;;-0.60;99.90;;;;;;4970516;28;20725;-55
2022/03/04 07:12:48;;;;;;;74.30;28.23;;;-0.60;99.90;;;;;;4953522;28;20328;-55
2022/03/04 07:15:14;;;;;;;55.47;25.33;;;-0.50;99.90;;;;;;4934227;28;20034;-54
2022/03/04 07:17:40;;;;;;;64.30;27.47;;;-0.50;99.90;;;;;;4956076;28;20038;-52
2022/03/04 07:20:07;;;;;;;51.37;23.77;;;-0.40;99.90;;;;;;4955932;28;20104;-55
2022/03/04 07:22:35;;;;;;;63.53;25.93;;;-0.40;99.90;;;;;;4955649;28;20493;-54
2022/03/04 07:25:03;;;;;;;76.37;28.93;;;-0.40;99.90;;;;;;4956925;28;20530;-55
2022/03/04 07:27:29;;;;;;;107.37;33.73;;;-0.40;99.90;;;;;;4961807;28;20078;-53
2022/03/04 07:29:55;;;;;;;68.00;28.47;;;-0.40;99.90;;;;;;4959413;28;20425;-52
2022/03/04 07:32:22;;;;;;;78.67;33.23;;;-0.40;99.90;;;;;;4957883;28;20428;-56
2022/03/04 07:34:48;;;;;;;72.37;30.47;;;-0.40;99.90;;;;;;4954837;28;20057;-53
2022/03/04 07:37:13;;;;;;;82.30;31.47;;;-0.40;99.90;;;;;;4951624;28;20050;-54
2022/03/04 07:39:39;;;;;;;66.27;26.43;;;-0.40;99.90;;;;;;4956938;28;20213;-52
2022/03/04 07:42:05;;;;;;;75.13;27.73;;;-0.40;99.90;;;;;;4954677;28;20058;-54
2022/03/04 07:44:31;;;;;;;62.00;26.10;;;-0.40;99.90;;;;;;4957096;28;20073;-56
2022/03/04 07:46:56;;;;;;;76.97;28.60;;;-0.40;99.90;;;;;;4956192;28;20127;-56
2022/03/04 07:49:22;;;;;;;80.05;28.85;;;-0.40;99.90;;;;;;4953728;28;20038;-53
2022/03/04 07:51:49;;;;;;;91.20;30.70;;;-0.40;99.90;;;;;;4953161;28;20038;-53
2022/03/04 07:54:14;;;;;;;73.47;28.97;;;-0.20;99.90;;;;;;4965470;28;22379;-52
2022/03/04 07:56:40;;;;;;;60.13;27.47;;;-0.30;99.90;;;;;;4969227;28;20089;-56
2022/03/04 07:59:07;;;;;;;55.67;25.43;;;-0.20;99.90;;;;;;4979667;28;20101;-56
2022/03/04 08:01:33;;;;;;;65.73;27.10;;;-0.20;99.90;;;;;;4960050;28;20050;-57
2022/03/04 08:03:58;;;;;;;61.70;26.67;;;-0.20;99.90;;;;;;4924576;28;20501;-53
2022/03/04 08:06:24;;;;;;;75.43;29.60;;;-0.20;99.90;;;;;;4956304;28;20050;-56
2022/03/04 08:08:50;;;;;;;65.53;27.90;;;-0.30;99.90;;;;;;4960642;28;20061;-56
2022/03/04 08:11:16;;;;;;;57.33;25.13;;;-0.20;99.90;;;;;;4970825;28;20038;-55
2022/03/04 08:13:42;;;;;;;66.83;27.70;;;-0.20;99.90;;;;;;4968886;28;20053;-56
2022/03/04 08:16:08;;;;;;;67.83;27.30;;;-0.20;99.90;;;;;;4962148;28;20053;-54
2022/03/04 08:18:34;;;;;;;49.53;24.60;;;-0.20;99.90;;;;;;4958592;28;20529;-52
2022/03/04 08:21:00;;;;;;;79.80;30.70;;;-0.20;99.90;;;;;;4936309;28;22814;-55
2022/03/04 08:23:26;;;;;;;58.80;24.50;;;-0.10;99.90;;;;;;4965013;28;20042;-56
2022/03/04 08:25:51;;;;;;;54.57;25.03;;;-0.10;99.90;;;;;;4960585;28;20100;-55
2022/03/04 08:28:18;;;;;;;57.23;25.60;;;0.00;99.90;;;;;;4952153;28;20035;-56
2022/03/04 08:30:43;;;;;;;66.60;28.08;;;0.00;99.90;;;;;;4964757;28;20038;-54
2022/03/04 08:33:09;;;;;;;51.50;23.70;;;0.00;99.90;;;;;;4954643;28;23096;-54
2022/03/04 08:35:35;;;;;;;50.88;23.70;;;0.10;99.90;;;;;;4956048;28;20038;-56
2022/03/04 08:38:02;;;;;;;55.35;25.95;;;0.10;99.90;;;;;;4955805;28;20213;-55
2022/03/04 08:40:28;;;;;;;56.93;27.03;;;0.20;99.90;;;;;;4954151;28;20144;-54
2022/03/04 08:42:54;;;;;;;67.82;29.33;;;0.20;99.90;;;;;;4967671;28;20397;-56
2022/03/04 08:45:20;;;;;;;55.63;26.25;;;0.20;99.90;;;;;;4963804;28;22170;-56
2022/03/04 08:47:46;;;;;;;69.45;28.70;;;0.20;99.90;;;;;;4961549;28;20100;-56
2022/03/04 08:50:15;;;;;;;57.47;25.95;;;0.30;99.90;;;;;;4958053;28;20141;-55
2022/03/04 08:52:41;;;;;;;65.57;29.70;;;0.30;99.90;;;;;;4960156;28;20026;-56
2022/03/04 08:55:14;;;;;;;66.88;28.15;;;0.30;99.90;;;;;;4958798;28;20433;-57
2022/03/04 08:57:41;;;;;;;67.15;28.88;;;0.30;99.90;;;;;;4956456;28;20039;-53
2022/03/04 09:00:08;;;;;;;64.30;28.17;;;0.40;99.90;;;;;;4981302;28;20177;-55
2022/03/04 09:02:33;;;;;;;61.23;26.63;;;0.40;99.90;;;;;;4954588;28;20133;-53
2022/03/04 09:04:59;;;;;;;59.63;27.00;;;0.50;99.90;;;;;;4955782;28;20038;-53
2022/03/04 09:07:25;;;;;;;51.45;25.08;;;0.50;99.90;;;;;;4940069;28;21530;-54
2022/03/04 09:09:51;;;;;;;60.15;27.92;;;0.60;99.90;;;;;;4952977;28;20934;-53
2022/03/04 09:12:18;;;;;;;63.03;27.95;;;0.60;99.90;;;;;;4954341;28;20038;-55
2022/03/04 09:14:45;;;;;;;54.60;26.27;;;0.70;99.90;;;;;;4951912;28;20045;-56
2022/03/04 09:17:11;;;;;;;56.70;27.02;;;0.80;99.90;;;;;;4940418;28;20128;-57
2022/03/04 09:19:36;;;;;;;51.33;24.83;;;0.90;99.90;;;;;;4955015;28;20046;-54
2022/03/04 09:22:03;;;;;;;62.20;28.73;;;0.90;99.90;;;;;;4955382;28;20057;-52
2022/03/04 09:24:29;;;;;;;54.65;25.67;;;0.90;99.90;;;;;;4953977;28;20506;-54
2022/03/04 09:26:55;;;;;;;73.55;30.52;;;0.80;99.90;;;;;;4955998;28;20092;-60
2022/03/04 09:29:21;;;;;;;53.08;26.13;;;0.80;99.90;;;;;;4958988;28;20418;-53
2022/03/04 09:31:46;;;;;;;52.55;26.27;;;0.80;99.90;;;;;;4941831;28;20055;-52
2022/03/04 09:34:12;;;;;;;62.22;27.77;;;1.00;99.90;;;;;;4961510;28;20057;-51
2022/03/04 09:36:38;;;;;;;54.85;27.60;;;1.00;99.90;;;;;;4978014;28;20035;-55
2022/03/04 09:39:04;;;;;;;51.45;24.85;;;1.00;99.90;;;;;;4943829;28;20036;-51
2022/03/04 09:41:30;;;;;;;56.25;26.88;;;1.00;99.90;;;;;;4958880;28;20042;-55
2022/03/04 09:43:57;;;;;;;68.97;31.25;;;1.00;99.90;;;;;;4958736;28;20180;-53
2022/03/04 09:46:24;;;;;;;67.22;31.75;;;1.10;99.90;;;;;;4949038;28;20141;-54
2022/03/04 09:48:52;;;;;;;56.85;25.75;;;1.10;99.90;;;;;;4945868;28;20145;-56
2022/03/04 09:51:19;;;;;;;59.05;26.52;;;1.10;99.90;;;;;;4975955;28;20073;-56
2022/03/04 09:53:45;;;;;;;60.58;28.05;;;1.30;99.90;;;;;;4962103;28;20105;-57
2022/03/04 09:56:13;;;;;;;55.60;29.65;;;1.50;99.90;;;;;;4942784;28;20049;-56
2022/03/04 09:58:38;;;;;;;60.05;27.73;;;1.50;99.90;;;;;;4964178;28;20057;-52
2022/03/04 10:01:12;;;;;;;58.13;28.90;;;1.60;99.90;;;;;;4950366;28;20054;-52
2022/03/04 10:03:43;;;;;;;57.60;28.75;;;1.70;99.90;;;;;;4978260;28;20120;-53
2022/03/04 10:06:09;;;;;;;50.35;26.77;;;1.70;99.90;;;;;;4960805;28;20797;-55
2022/03/04 10:08:39;;;;;;;52.35;26.60;;;1.80;99.90;;;;;;4961173;28;20502;-55
2022/03/04 10:11:06;;;;;;;54.80;27.55;;;1.90;99.90;;;;;;4974296;28;20700;-55
2022/03/04 10:13:53;;;;;;;41.40;23.75;;;2.30;99.90;;;;;;4960016;28;20056;-55
2022/03/04 10:16:35;;;;;;;37.22;21.85;;;2.80;99.90;;;;;;4951056;28;20180;-55
2022/03/04 10:19:20;;;;;;;35.47;20.73;;;3.10;99.90;;;;;;4957146;28;20057;-56
2022/03/04 10:21:58;;;;;;;30.25;17.30;;;3.40;99.90;;;;;;4975576;28;20058;-55
2022/03/04 10:24:51;;;;;;;32.22;18.05;;;3.60;99.90;;;;;;4958455;28;20410;-55
2022/03/04 10:27:17;;;;;;;29.90;17.70;;;3.80;99.90;;;;;;4960626;28;20058;-53
2022/03/04 10:29:45;;;;;;;31.85;19.02;;;4.00;99.90;;;;;;4945631;28;20513;-54
2022/03/04 10:32:26;;;;;;;28.23;17.13;;;4.20;99.90;;;;;;4962337;28;20062;-55
2022/03/04 10:34:55;;;;;;;27.73;16.55;;;4.30;99.90;;;;;;4959960;28;20104;-54
2022/03/04 10:37:52;;;;;;;27.45;16.35;;;4.50;99.90;;;;;;4944336;28;20449;-55
2022/03/04 10:40:22;;;;;;;28.77;18.50;;;4.60;99.90;;;;;;4945854;28;20501;-54
2022/03/04 10:43:02;;;;;;;27.70;16.88;;;4.80;99.90;;;;;;4961086;28;20145;-59
2022/03/04 10:45:32;;;;;;;27.42;16.95;;;4.80;99.90;;;;;;4956879;28;20510;-55
2022/03/04 10:48:09;;;;;;;27.17;17.13;;;4.90;99.90;;;;;;4962943;28;20096;-53
2022/03/04 10:50:53;;;;;;;26.50;17.02;;;5.10;99.90;;;;;;4961638;28;20053;-55
2022/03/04 10:53:21;;;;;;;25.30;15.93;;;5.20;99.90;;;;;;4960980;28;20389;-54
2022/03/04 10:56:13;;;;;;;36.67;19.13;;;5.40;99.90;;;;;;4964379;28;20044;-53
2022/03/04 10:58:41;;;;;;;26.95;17.45;;;5.60;99.90;;;;;;4973841;28;20421;-55
2022/03/04 11:01:12;;;;;;;24.33;15.75;;;5.80;99.90;;;;;;4957885;28;20058;-56
2022/03/04 11:03:40;;;;;;;24.95;15.40;;;5.80;99.90;;;;;;4967263;28;20047;-54
2022/03/04 11:06:11;;;;;;;22.73;15.02;;;5.80;99.90;;;;;;4965366;28;20248;-56
2022/03/04 11:08:37;;;;;;;21.02;15.43;;;5.90;99.90;;;;;;4973514;28;20180;-55
2022/03/04 11:11:04;;;;;;;23.17;15.68;;;6.10;99.90;;;;;;4941782;28;20054;-53
2022/03/04 11:13:32;;;;;;;25.20;17.25;;;6.40;99.90;;;;;;4958078;28;20042;-54
2022/03/04 11:15:58;;;;;;;26.83;18.65;;;6.40;99.90;;;;;;4953853;28;20034;-57
2022/03/04 11:18:24;;;;;;;25.92;16.92;;;6.50;99.90;;;;;;4965349;28;20536;-56
2022/03/04 11:20:53;;;;;;;23.70;16.15;;;6.60;99.90;;;;;;4956163;28;20046;-56
2022/03/04 11:23:22;;;;;;;23.05;15.57;;;6.70;99.90;;;;;;4949688;28;20101;-57
2022/03/04 11:26:18;;;;;;;23.17;15.75;;;6.70;99.90;;;;;;4951273;28;20053;-57
2022/03/04 11:28:49;;;;;;;23.08;15.45;;;6.80;99.90;;;;;;4974519;28;20043;-57
2022/03/04 11:31:20;;;;;;;23.00;14.75;;;6.90;99.90;;;;;;4973690;28;20469;-57
2022/03/04 11:33:58;;;;;;;23.38;15.90;;;7.00;99.90;;;;;;4974531;28;20030;-56
2022/03/04 11:36:32;;;;;;;21.02;15.18;;;7.10;99.90;;;;;;4970635;28;20414;-55
2022/03/04 11:39:01;;;;;;;23.90;16.75;;;7.20;99.90;;;;;;4963397;28;20402;-55
2022/03/04 11:41:26;;;;;;;19.73;14.73;;;7.20;99.90;;;;;;4957628;28;20054;-56
2022/03/04 11:43:55;;;;;;;22.50;14.23;;;7.10;99.80;;;;;;4947456;28;20085;-55
2022/03/04 11:46:43;;;;;;;22.48;15.55;;;6.90;99.80;;;;;;4948235;28;20043;-56
2022/03/04 11:49:27;;;;;;;22.35;14.07;;;7.10;99.90;;;;;;4955258;28;20065;-53
2022/03/04 11:52:19;;;;;;;22.85;14.93;;;7.30;99.90;;;;;;4949674;28;20078;-56
2022/03/04 11:54:51;;;;;;;21.42;14.85;;;7.70;99.90;;;;;;4954419;28;20765;-53
2022/03/04 11:57:18;;;;;;;20.02;13.07;;;7.80;99.40;;;;;;4960372;28;20050;-54
2022/03/04 12:00:12;;;;;;;18.17;13.05;;;7.90;99.50;;;;;;4951313;28;20433;-54
2022/03/04 12:02:48;;;;;;;21.67;13.07;;;8.00;98.60;;;;;;4957445;28;20552;-54
2022/03/04 12:05:14;;;;;;;19.15;13.23;;;8.10;98.90;;;;;;4960802;28;20070;-55
2022/03/04 12:08:06;;;;;;;20.52;14.48;;;8.20;98.40;;;;;;4956893;28;20249;-54
2022/03/04 12:10:47;;;;;;;23.58;15.45;;;8.40;98.40;;;;;;4964148;28;20099;-55
2022/03/04 12:13:23;;;;;;;19.05;14.27;;;8.40;97.20;;;;;;4963967;28;20042;-54
2022/03/04 12:16:03;;;;;;;27.38;19.17;;;8.30;97.10;;;;;;4956549;28;20035;-54
2022/03/04 12:18:38;;;;;;;18.35;13.25;;;8.20;97.70;;;;;;4951699;28;20047;-56
2022/03/04 12:21:25;;;;;;;20.60;13.88;;;8.20;96.70;;;;;;4949785;28;20059;-54
2022/03/04 12:23:59;;;;;;;20.73;14.13;;;8.20;95.70;;;;;;4959212;28;20045;-53
2022/03/04 12:26:37;;;;;;;16.30;11.90;;;8.00;96.20;;;;;;4952222;28;20046;-55
2022/03/04 12:29:03;;;;;;;17.25;11.50;;;8.10;95.70;;;;;;4970054;28;20050;-54
2022/03/04 12:31:38;;;;;;;17.85;12.65;;;8.30;96.00;;;;;;4976712;28;20054;-54
2022/03/04 12:34:05;;;;;;;19.33;13.43;;;8.50;94.90;;;;;;4980617;28;20034;-52
2022/03/04 12:36:31;;;;;;;17.40;11.50;;;8.50;96.00;;;;;;4991822;28;20045;-50
2022/03/04 12:38:59;;;;;;;16.50;11.30;;;8.50;95.10;;;;;;4976685;28;20461;-54